METAR Data
IDs: Format: Raw Decoded Include TAF

Data at: 1846 UTC 21 Nov 2018

METAR for:KBRO (Brownsville Intl, TX, US)
Text:KBRO 211753Z 31008KT 1SM -RA BR OVC004 16/16 A3020 RMK AO2 RAB1658 SLP226 P0003 60003 T01610156 10161 20133 58013
Temperature: 16.1°C ( 61°F)
Dewpoint: 15.6°C ( 60°F) [RH = 97%]
Pressure (altimeter):30.20 inches Hg (1022.8 mb) [Sea level pressure: 1022.6 mb]
Winds:from the NW (310 degrees) at 9 MPH (8 knots; 4.1 m/s)
Visibility: 1.00 sm ( 1.61 km)
Ceiling:400 feet AGL
Clouds: overcast cloud deck at 400 feet AGL
Weather:-RA BR (light rain, mist)